sensor_id;sensor_type;location;lat;lon;timestamp;pressure;altitude;pressure_sealevel;temperature;humidity
62697;BME280;48761;42.680;23.312;2023-05-20T00:00:41;95144.53;;;14.08;78.54
62697;BME280;48761;42.680;23.312;2023-05-20T00:03:07;95130.56;;;13.93;78.72
62697;BME280;48761;42.680;23.312;2023-05-20T00:05:32;95151.25;;;14.03;78.87
62697;BME280;48761;42.680;23.312;2023-05-20T00:07:59;95156.31;;;14.06;78.93
62697;BME280;48761;42.680;23.312;2023-05-20T00:10:25;95130.06;;;13.88;79.21
62697;BME280;48761;42.680;23.312;2023-05-20T00:12:51;95103.03;;;13.70;79.28
62697;BME280;48761;42.680;23.312;2023-05-20T00:15:17;95094.75;;;13.61;79.48
62697;BME280;48761;42.680;23.312;2023-05-20T00:17:43;95116.97;;;13.73;79.73
62697;BME280;48761;42.680;23.312;2023-05-20T00:20:09;95144.69;;;13.95;79.33
62697;BME280;48761;42.680;23.312;2023-05-20T00:22:35;95090.84;;;13.54;79.79
62697;BME280;48761;42.680;23.312;2023-05-20T00:25:01;95088.78;;;13.58;79.94
62697;BME280;48761;42.680;23.312;2023-05-20T00:27:27;95145.38;;;14.09;78.75
62697;BME280;48761;42.680;23.312;2023-05-20T00:29:53;95132.75;;;13.88;79.19
62697;BME280;48761;42.680;23.312;2023-05-20T00:32:19;95125.50;;;13.90;79.05
62697;BME280;48761;42.680;23.312;2023-05-20T00:34:55;95087.09;;;13.80;77.69
62697;BME280;48761;42.680;23.312;2023-05-20T00:37:21;95106.19;;;13.75;78.15
62697;BME280;48761;42.680;23.312;2023-05-20T00:39:47;95132.66;;;13.89;78.36
62697;BME280;48761;42.680;23.312;2023-05-20T00:42:23;95141.00;;;13.73;78.90
62697;BME280;48761;42.680;23.312;2023-05-20T00:44:50;95087.81;;;13.47;79.54
62697;BME280;48761;42.680;23.312;2023-05-20T00:47:24;95119.41;;;13.65;79.35
62697;BME280;48761;42.680;23.312;2023-05-20T00:49:50;95098.72;;;13.44;79.30
62697;BME280;48761;42.680;23.312;2023-05-20T00:52:17;95127.06;;;13.70;79.55
62697;BME280;48761;42.680;23.312;2023-05-20T00:54:44;95123.16;;;13.74;79.08
62697;BME280;48761;42.680;23.312;2023-05-20T00:57:11;95115.97;;;13.63;79.13
62697;BME280;48761;42.680;23.312;2023-05-20T00:59:37;95100.44;;;13.68;78.48
62697;BME280;48761;42.680;23.312;2023-05-20T01:02:04;95104.09;;;13.67;78.75
62697;BME280;48761;42.680;23.312;2023-05-20T01:04:30;95107.97;;;13.63;79.00
62697;BME280;48761;42.680;23.312;2023-05-20T01:06:58;95116.19;;;13.48;79.55
62697;BME280;48761;42.680;23.312;2023-05-20T01:09:25;95081.06;;;13.30;79.64
62697;BME280;48761;42.680;23.312;2023-05-20T01:11:57;95095.56;;;13.39;79.66
62697;BME280;48761;42.680;23.312;2023-05-20T01:14:26;95069.44;;;13.19;79.74
62697;BME280;48761;42.680;23.312;2023-05-20T01:16:55;95126.41;;;13.54;79.45
62697;BME280;48761;42.680;23.312;2023-05-20T01:19:30;95077.31;;;13.21;79.55
62697;BME280;48761;42.680;23.312;2023-05-20T01:22:02;95071.00;;;13.10;79.99
62697;BME280;48761;42.680;23.312;2023-05-20T01:24:30;95075.41;;;13.34;78.81
62697;BME280;48761;42.680;23.312;2023-05-20T01:26:56;95097.84;;;13.43;78.98
62697;BME280;48761;42.680;23.312;2023-05-20T01:29:23;95122.03;;;13.42;79.63
62697;BME280;48761;42.680;23.312;2023-05-20T01:31:50;95122.97;;;13.41;79.57
62697;BME280;48761;42.680;23.312;2023-05-20T01:34:18;95123.47;;;13.46;79.44
62697;BME280;48761;42.680;23.312;2023-05-20T01:36:45;95127.59;;;13.50;79.24
62697;BME280;48761;42.680;23.312;2023-05-20T01:39:12;95116.69;;;13.42;79.37
62697;BME280;48761;42.680;23.312;2023-05-20T01:41:39;95117.75;;;13.39;79.15
62697;BME280;48761;42.680;23.312;2023-05-20T01:44:06;95127.59;;;13.39;79.28
62697;BME280;48761;42.680;23.312;2023-05-20T01:46:33;95128.03;;;13.32;79.41
62697;BME280;48761;42.680;23.312;2023-05-20T01:48:59;95112.75;;;13.23;79.49
62697;BME280;48761;42.680;23.312;2023-05-20T01:51:25;95122.72;;;13.32;79.44
62697;BME280;48761;42.680;23.312;2023-05-20T01:53:51;95100.13;;;13.14;79.68
62697;BME280;48761;42.680;23.312;2023-05-20T01:56:17;95118.00;;;13.25;79.72
62697;BME280;48761;42.680;23.312;2023-05-20T01:58:43;95115.91;;;13.28;79.72
62697;BME280;48761;42.680;23.312;2023-05-20T02:01:09;95107.19;;;13.26;79.88
62697;BME280;48761;42.680;23.312;2023-05-20T02:03:35;95116.13;;;13.25;79.77
62697;BME280;48761;42.680;23.312;2023-05-20T02:06:00;95111.06;;;13.22;79.73
62697;BME280;48761;42.680;23.312;2023-05-20T02:08:26;95113.88;;;12.96;81.29
62697;BME280;48761;42.680;23.312;2023-05-20T02:10:53;95107.59;;;12.72;82.62
62697;BME280;48761;42.680;23.312;2023-05-20T02:13:19;95078.91;;;12.76;82.01
62697;BME280;48761;42.680;23.312;2023-05-20T02:15:45;95105.16;;;12.94;81.76
62697;BME280;48761;42.680;23.312;2023-05-20T02:18:11;95096.16;;;12.95;81.54
62697;BME280;48761;42.680;23.312;2023-05-20T02:20:37;95110.59;;;12.92;81.15
62697;BME280;48761;42.680;23.312;2023-05-20T02:23:03;95113.38;;;12.91;81.09
62697;BME280;48761;42.680;23.312;2023-05-20T02:25:29;95108.69;;;12.94;81.25
62697;BME280;48761;42.680;23.312;2023-05-20T02:27:55;95109.06;;;13.01;80.83
62697;BME280;48761;42.680;23.312;2023-05-20T02:30:21;95097.38;;;12.91;81.08
62697;BME280;48761;42.680;23.312;2023-05-20T02:32:47;95105.59;;;12.87;81.13
62697;BME280;48761;42.680;23.312;2023-05-20T02:35:13;95092.97;;;12.78;80.78
62697;BME280;48761;42.680;23.312;2023-05-20T02:37:39;95100.78;;;12.93;80.53
62697;BME280;48761;42.680;23.312;2023-05-20T02:40:06;95099.09;;;12.92;80.77
62697;BME280;48761;42.680;23.312;2023-05-20T02:42:32;95099.09;;;12.92;80.42
62697;BME280;48761;42.680;23.312;2023-05-20T02:44:58;95086.22;;;12.97;79.85
62697;BME280;48761;42.680;23.312;2023-05-20T02:47:24;95100.22;;;13.12;79.50
62697;BME280;48761;42.680;23.312;2023-05-20T02:49:50;95107.31;;;12.88;80.12
62697;BME280;48761;42.680;23.312;2023-05-20T02:52:16;95091.81;;;12.94;80.10
62697;BME280;48761;42.680;23.312;2023-05-20T02:54:42;95098.47;;;12.88;80.61
62697;BME280;48761;42.680;23.312;2023-05-20T02:57:08;95099.56;;;12.97;80.22
62697;BME280;48761;42.680;23.312;2023-05-20T02:59:34;95104.44;;;12.92;80.27
62697;BME280;48761;42.680;23.312;2023-05-20T03:02:00;95093.13;;;12.88;80.13
62697;BME280;48761;42.680;23.312;2023-05-20T03:04:26;95089.72;;;12.86;80.47
62697;BME280;48761;42.680;23.312;2023-05-20T03:06:52;95080.50;;;12.78;80.09
62697;BME280;48761;42.680;23.312;2023-05-20T03:09:18;95112.69;;;13.00;79.26
62697;BME280;48761;42.680;23.312;2023-05-20T03:11:44;95109.28;;;12.98;79.89
62697;BME280;48761;42.680;23.312;2023-05-20T03:14:10;95123.09;;;12.92;80.18
62697;BME280;48761;42.680;23.312;2023-05-20T03:16:36;95125.28;;;12.98;80.33
62697;BME280;48761;42.680;23.312;2023-05-20T03:19:02;95114.41;;;13.01;80.94
62697;BME280;48761;42.680;23.312;2023-05-20T03:21:28;95095.94;;;12.98;80.40
62697;BME280;48761;42.680;23.312;2023-05-20T03:23:54;95129.75;;;13.22;80.52
62697;BME280;48761;42.680;23.312;2023-05-20T03:26:22;95120.75;;;13.23;80.56
62697;BME280;48761;42.680;23.312;2023-05-20T03:28:48;95104.50;;;13.38;80.28
62697;BME280;48761;42.680;23.312;2023-05-20T03:31:14;95110.16;;;13.58;79.11
62697;BME280;48761;42.680;23.312;2023-05-20T03:33:40;95116.13;;;13.84;78.49
62697;BME280;48761;42.680;23.312;2023-05-20T03:36:08;95099.09;;;13.85;77.91
62697;BME280;48761;42.680;23.312;2023-05-20T03:38:34;95118.75;;;14.19;76.65
62697;BME280;48761;42.680;23.312;2023-05-20T03:41:00;95124.84;;;14.32;75.74
62697;BME280;48761;42.680;23.312;2023-05-20T03:43:26;95124.94;;;14.31;75.45
62697;BME280;48761;42.680;23.312;2023-05-20T03:45:52;95127.75;;;14.41;74.94
62697;BME280;48761;42.680;23.312;2023-05-20T03:48:18;95104.03;;;14.36;74.43
62697;BME280;48761;42.680;23.312;2023-05-20T03:50:48;95127.56;;;14.65;73.43
62697;BME280;48761;42.680;23.312;2023-05-20T03:53:14;95114.47;;;14.51;74.13
62697;BME280;48761;42.680;23.312;2023-05-20T03:55:40;95118.81;;;14.63;73.70
62697;BME280;48761;42.680;23.312;2023-05-20T03:58:06;95119.59;;;14.75;73.01
62697;BME280;48761;42.680;23.312;2023-05-20T04:00:33;95093.72;;;14.76;72.63
62697;BME280;48761;42.680;23.312;2023-05-20T04:02:59;95144.56;;;15.30;71.83
62697;BME280;48761;42.680;23.312;2023-05-20T04:05:25;95112.53;;;15.19;71.68
62697;BME280;48761;42.680;23.312;2023-05-20T04:07:51;95144.19;;;15.56;71.16
62697;BME280;48761;42.680;23.312;2023-05-20T04:10:18;95138.28;;;15.63;70.40
62697;BME280;48761;42.680;23.312;2023-05-20T04:12:44;95145.19;;;15.87;70.40
62697;BME280;48761;42.680;23.312;2023-05-20T04:15:10;95104.56;;;15.82;69.43
62697;BME280;48761;42.680;23.312;2023-05-20T04:17:36;95140.66;;;16.09;68.88
62697;BME280;48761;42.680;23.312;2023-05-20T04:20:03;95145.66;;;16.23;68.87
62697;BME280;48761;42.680;23.312;2023-05-20T04:22:29;95131.38;;;16.23;68.27
62697;BME280;48761;42.680;23.312;2023-05-20T04:24:55;95128.19;;;16.39;67.40
62697;BME280;48761;42.680;23.312;2023-05-20T04:27:21;95141.56;;;16.71;66.76
62697;BME280;48761;42.680;23.312;2023-05-20T04:29:47;95138.13;;;16.58;66.77
62697;BME280;48761;42.680;23.312;2023-05-20T04:32:16;95120.06;;;16.51;66.91
62697;BME280;48761;42.680;23.312;2023-05-20T04:34:42;95150.16;;;16.84;66.98
62697;BME280;48761;42.680;23.312;2023-05-20T04:37:08;95150.91;;;17.06;66.41
62697;BME280;48761;42.680;23.312;2023-05-20T04:39:34;95139.91;;;17.39;65.43
62697;BME280;48761;42.680;23.312;2023-05-20T04:42:01;95153.22;;;17.89;64.79
62697;BME280;48761;42.680;23.312;2023-05-20T04:44:27;95154.13;;;18.28;63.62
62697;BME280;48761;42.680;23.312;2023-05-20T04:46:53;95160.28;;;18.38;62.38
62697;BME280;48761;42.680;23.312;2023-05-20T04:49:19;95168.75;;;18.43;61.83
62697;BME280;48761;42.680;23.312;2023-05-20T04:51:45;95156.50;;;18.59;62.22
62697;BME280;48761;42.680;23.312;2023-05-20T04:54:11;95159.75;;;18.81;61.30
62697;BME280;48761;42.680;23.312;2023-05-20T04:56:37;95148.22;;;18.70;60.74
62697;BME280;48761;42.680;23.312;2023-05-20T04:59:03;95103.28;;;18.89;59.79
62697;BME280;48761;42.680;23.312;2023-05-20T05:01:29;95140.41;;;19.32;59.17
62697;BME280;48761;42.680;23.312;2023-05-20T05:03:55;95158.59;;;19.30;59.12
62697;BME280;48761;42.680;23.312;2023-05-20T05:06:24;95116.56;;;19.19;59.05
62697;BME280;48761;42.680;23.312;2023-05-20T05:08:50;95148.47;;;19.51;57.91
62697;BME280;48761;42.680;23.312;2023-05-20T05:11:16;95144.16;;;19.85;57.71
62697;BME280;48761;42.680;23.312;2023-05-20T05:13:42;95155.75;;;20.03;57.70
62697;BME280;48761;42.680;23.312;2023-05-20T05:16:08;95168.09;;;20.41;56.95
62697;BME280;48761;42.680;23.312;2023-05-20T05:18:34;95115.88;;;19.89;56.58
62697;BME280;48761;42.680;23.312;2023-05-20T05:21:04;95163.31;;;20.26;56.42
62697;BME280;48761;42.680;23.312;2023-05-20T05:26:08;95114.09;;;19.71;57.99
62697;BME280;48761;42.680;23.312;2023-05-20T05:28:35;95141.72;;;19.73;56.09
62697;BME280;48761;42.680;23.312;2023-05-20T05:31:03;95166.06;;;19.81;56.33
62697;BME280;48761;42.680;23.312;2023-05-20T05:33:30;95154.03;;;20.02;55.28
62697;BME280;48761;42.680;23.312;2023-05-20T05:38:36;95134.59;;;21.21;53.74
62697;BME280;48761;42.680;23.312;2023-05-20T05:41:02;95125.09;;;21.67;52.04
62697;BME280;48761;42.680;23.312;2023-05-20T05:43:31;95142.69;;;21.29;52.36
62697;BME280;48761;42.680;23.312;2023-05-20T05:45:57;95151.50;;;21.39;53.19
62697;BME280;48761;42.680;23.312;2023-05-20T05:48:23;95141.63;;;22.14;51.41
62697;BME280;48761;42.680;23.312;2023-05-20T05:51:07;95119.47;;;22.10;50.88
62697;BME280;48761;42.680;23.312;2023-05-20T05:53:35;95118.34;;;21.63;51.43
62697;BME280;48761;42.680;23.312;2023-05-20T05:56:03;95153.00;;;21.17;52.30
62697;BME280;48761;42.680;23.312;2023-05-20T05:59:11;95138.66;;;21.25;51.65
62697;BME280;48761;42.680;23.312;2023-05-20T06:16:23;95096.97;;;19.17;53.66
62697;BME280;48761;42.680;23.312;2023-05-20T06:22:50;95119.22;;;21.46;51.02
62697;BME280;48761;42.680;23.312;2023-05-20T06:25:34;95135.09;;;22.40;49.11
62697;BME280;48761;42.680;23.312;2023-05-20T06:28:29;95087.56;;;21.80;49.29
62697;BME280;48761;42.680;23.312;2023-05-20T06:40:52;95073.72;;;20.75;50.53
62697;BME280;48761;42.680;23.312;2023-05-20T06:43:32;95113.41;;;20.91;50.86
62697;BME280;48761;42.680;23.312;2023-05-20T06:49:45;95104.41;;;20.74;50.48
62697;BME280;48761;42.680;23.312;2023-05-20T06:54:11;95050.47;;;20.22;48.87
62697;BME280;48761;42.680;23.312;2023-05-20T07:05:21;95065.03;;;20.46;49.43
62697;BME280;48761;42.680;23.312;2023-05-20T07:07:47;95118.75;;;20.66;48.53
62697;BME280;48761;42.680;23.312;2023-05-20T07:10:13;95085.53;;;20.65;49.02
62697;BME280;48761;42.680;23.312;2023-05-20T07:12:39;95091.53;;;20.42;48.84
62697;BME280;48761;42.680;23.312;2023-05-20T07:15:06;95074.03;;;20.71;48.32
62697;BME280;48761;42.680;23.312;2023-05-20T07:17:32;95110.09;;;21.05;47.73
62697;BME280;48761;42.680;23.312;2023-05-20T07:19:58;95063.25;;;20.80;47.04
62697;BME280;48761;42.680;23.312;2023-05-20T07:22:25;95104.84;;;21.12;48.48
62697;BME280;48761;42.680;23.312;2023-05-20T07:24:57;95107.22;;;21.15;47.61
62697;BME280;48761;42.680;23.312;2023-05-20T07:27:31;95058.34;;;20.67;48.24
62697;BME280;48761;42.680;23.312;2023-05-20T07:30:05;95043.53;;;20.27;47.31
62697;BME280;48761;42.680;23.312;2023-05-20T07:32:31;95062.06;;;20.91;45.58
62697;BME280;48761;42.680;23.312;2023-05-20T07:34:57;95075.59;;;21.66;44.83
62697;BME280;48761;42.680;23.312;2023-05-20T07:37:23;95097.41;;;21.39;45.87
62697;BME280;48761;42.680;23.312;2023-05-20T07:39:49;95098.44;;;21.22;45.65
62697;BME280;48761;42.680;23.312;2023-05-20T07:42:15;95104.50;;;21.24;45.89
62697;BME280;48761;42.680;23.312;2023-05-20T07:44:42;95100.75;;;21.83;44.16
62697;BME280;48761;42.680;23.312;2023-05-20T07:47:08;95103.31;;;21.52;44.42
62697;BME280;48761;42.680;23.312;2023-05-20T07:49:34;95103.53;;;22.24;43.94
62697;BME280;48761;42.680;23.312;2023-05-20T07:52:00;95091.56;;;22.10;43.78
62697;BME280;48761;42.680;23.312;2023-05-20T07:54:26;95091.06;;;22.55;42.96
62697;BME280;48761;42.680;23.312;2023-05-20T07:56:52;95073.38;;;22.35;43.03
62697;BME280;48761;42.680;23.312;2023-05-20T07:59:18;95057.63;;;21.82;44.29
62697;BME280;48761;42.680;23.312;2023-05-20T08:01:44;95075.47;;;21.17;45.23
62697;BME280;48761;42.680;23.312;2023-05-20T08:04:10;95091.63;;;20.92;45.30
62697;BME280;48761;42.680;23.312;2023-05-20T08:06:36;95092.88;;;21.15;46.27
62697;BME280;48761;42.680;23.312;2023-05-20T08:09:02;95092.31;;;21.70;46.37
62697;BME280;48761;42.680;23.312;2023-05-20T08:11:28;95084.88;;;21.89;45.00
62697;BME280;48761;42.680;23.312;2023-05-20T08:13:54;95081.50;;;21.61;45.89
62697;BME280;48761;42.680;23.312;2023-05-20T08:16:20;95088.97;;;21.51;45.29
62697;BME280;48761;42.680;23.312;2023-05-20T08:18:46;95081.53;;;21.53;45.19
62697;BME280;48761;42.680;23.312;2023-05-20T08:21:12;95088.97;;;21.43;46.23
62697;BME280;48761;42.680;23.312;2023-05-20T08:23:38;95069.38;;;21.07;45.65
62697;BME280;48761;42.680;23.312;2023-05-20T08:26:04;95063.59;;;21.52;45.62
62697;BME280;48761;42.680;23.312;2023-05-20T08:28:31;95069.66;;;20.79;45.89
62697;BME280;48761;42.680;23.312;2023-05-20T08:30:57;95054.31;;;20.79;47.03
62697;BME280;48761;42.680;23.312;2023-05-20T08:33:23;95054.50;;;20.94;47.07
62697;BME280;48761;42.680;23.312;2023-05-20T08:35:49;95034.88;;;20.76;47.89
62697;BME280;48761;42.680;23.312;2023-05-20T08:38:15;95071.34;;;21.72;47.77
62697;BME280;48761;42.680;23.312;2023-05-20T08:40:41;95036.88;;;21.66;46.25
62697;BME280;48761;42.680;23.312;2023-05-20T08:43:08;95066.88;;;22.04;45.79
62697;BME280;48761;42.680;23.312;2023-05-20T08:45:37;95027.31;;;22.03;45.65
62697;BME280;48761;42.680;23.312;2023-05-20T08:48:05;95039.56;;;21.91;45.50
62697;BME280;48761;42.680;23.312;2023-05-20T08:50:31;95027.66;;;22.09;45.18
62697;BME280;48761;42.680;23.312;2023-05-20T08:52:58;95059.09;;;22.10;45.43
62697;BME280;48761;42.680;23.312;2023-05-20T08:55:25;95088.28;;;21.49;46.31
62697;BME280;48761;42.680;23.312;2023-05-20T08:57:55;95073.78;;;21.33;46.47
62697;BME280;48761;42.680;23.312;2023-05-20T09:00:22;95038.97;;;21.22;46.94
62697;BME280;48761;42.680;23.312;2023-05-20T09:02:48;95087.97;;;21.44;47.52
62697;BME280;48761;42.680;23.312;2023-05-20T09:05:14;95062.88;;;21.83;47.72
62697;BME280;48761;42.680;23.312;2023-05-20T09:07:41;95056.69;;;21.58;47.18
62697;BME280;48761;42.680;23.312;2023-05-20T09:10:08;95064.72;;;22.00;45.81
62697;BME280;48761;42.680;23.312;2023-05-20T09:12:34;95079.53;;;21.05;46.71
62697;BME280;48761;42.680;23.312;2023-05-20T09:15:01;95037.13;;;20.20;47.77
62697;BME280;48761;42.680;23.312;2023-05-20T09:17:27;95029.47;;;20.67;48.75
62697;BME280;48761;42.680;23.312;2023-05-20T09:19:53;95034.25;;;21.41;47.27
62697;BME280;48761;42.680;23.312;2023-05-20T09:22:27;95032.34;;;21.58;46.54
62697;BME280;48761;42.680;23.312;2023-05-20T09:24:53;95033.06;;;21.26;47.88
62697;BME280;48761;42.680;23.312;2023-05-20T09:27:20;94997.94;;;21.18;48.34
62697;BME280;48761;42.680;23.312;2023-05-20T09:29:50;95013.59;;;20.56;49.14
62697;BME280;48761;42.680;23.312;2023-05-20T09:32:17;95007.88;;;20.84;48.67
62697;BME280;48761;42.680;23.312;2023-05-20T09:34:46;95002.34;;;21.11;47.87
62697;BME280;48761;42.680;23.312;2023-05-20T09:37:13;95032.88;;;20.86;48.50
62697;BME280;48761;42.680;23.312;2023-05-20T09:39:51;95051.31;;;21.33;47.80
62697;BME280;48761;42.680;23.312;2023-05-20T09:42:21;95042.00;;;21.44;47.49
62697;BME280;48761;42.680;23.312;2023-05-20T09:44:50;95000.81;;;21.33;47.99
62697;BME280;48761;42.680;23.312;2023-05-20T09:47:17;95012.94;;;22.11;46.92
62697;BME280;48761;42.680;23.312;2023-05-20T09:49:45;94987.19;;;21.67;46.30
62697;BME280;48761;42.680;23.312;2023-05-20T09:52:14;95004.84;;;21.94;46.52
62697;BME280;48761;42.680;23.312;2023-05-20T09:54:42;95013.97;;;22.42;45.52
62697;BME280;48761;42.680;23.312;2023-05-20T09:57:09;95029.34;;;22.65;45.64
62697;BME280;48761;42.680;23.312;2023-05-20T09:59:36;95006.13;;;22.15;43.96
62697;BME280;48761;42.680;23.312;2023-05-20T10:02:04;95024.59;;;22.12;44.25
62697;BME280;48761;42.680;23.312;2023-05-20T10:04:32;95009.13;;;22.29;45.70
62697;BME280;48761;42.680;23.312;2023-05-20T10:12:43;94980.69;;;22.57;43.90
62697;BME280;48761;42.680;23.312;2023-05-20T10:21:31;94992.66;;;21.42;44.09
62697;BME280;48761;42.680;23.312;2023-05-20T10:24:10;94974.09;;;21.30;45.37
62697;BME280;48761;42.680;23.312;2023-05-20T10:26:41;94970.94;;;21.75;45.23
62697;BME280;48761;42.680;23.312;2023-05-20T10:29:15;94982.91;;;21.89;42.80
62697;BME280;48761;42.680;23.312;2023-05-20T10:31:49;94979.25;;;22.14;43.56
62697;BME280;48761;42.680;23.312;2023-05-20T10:34:17;94987.94;;;22.33;43.42
62697;BME280;48761;42.680;23.312;2023-05-20T10:39:25;94979.84;;;21.44;44.56
62697;BME280;48761;42.680;23.312;2023-05-20T10:41:52;94962.84;;;21.67;43.31
62697;BME280;48761;42.680;23.312;2023-05-20T10:44:18;94974.72;;;21.57;43.12
62697;BME280;48761;42.680;23.312;2023-05-20T10:46:44;94966.19;;;21.12;44.36
62697;BME280;48761;42.680;23.312;2023-05-20T10:49:17;94968.03;;;20.86;43.60
62697;BME280;48761;42.680;23.312;2023-05-20T10:51:44;94963.81;;;21.09;44.32
62697;BME280;48761;42.680;23.312;2023-05-20T10:54:11;94947.41;;;21.27;44.28
62697;BME280;48761;42.680;23.312;2023-05-20T10:56:39;94927.69;;;21.67;43.05
62697;BME280;48761;42.680;23.312;2023-05-20T10:59:05;94937.81;;;21.73;42.84
62697;BME280;48761;42.680;23.312;2023-05-20T11:01:31;94945.19;;;21.39;43.78
62697;BME280;48761;42.680;23.312;2023-05-20T11:03:57;94928.50;;;21.27;43.15
62697;BME280;48761;42.680;23.312;2023-05-20T11:06:27;94928.41;;;21.52;43.95
62697;BME280;48761;42.680;23.312;2023-05-20T11:08:53;94931.16;;;21.44;44.08
62697;BME280;48761;42.680;23.312;2023-05-20T11:11:19;94932.38;;;21.24;44.40
62697;BME280;48761;42.680;23.312;2023-05-20T11:13:50;94937.66;;;21.01;44.51
62697;BME280;48761;42.680;23.312;2023-05-20T11:16:16;94935.13;;;20.82;44.46
62697;BME280;48761;42.680;23.312;2023-05-20T11:18:42;94942.41;;;20.90;45.31
62697;BME280;48761;42.680;23.312;2023-05-20T11:21:08;94929.22;;;21.12;45.60
62697;BME280;48761;42.680;23.312;2023-05-20T11:23:34;94897.47;;;20.98;46.03
62697;BME280;48761;42.680;23.312;2023-05-20T11:26:00;94928.16;;;21.38;45.35
62697;BME280;48761;42.680;23.312;2023-05-20T11:28:26;94921.38;;;21.34;45.20
62697;BME280;48761;42.680;23.312;2023-05-20T11:30:52;94920.28;;;21.60;44.51
62697;BME280;48761;42.680;23.312;2023-05-20T11:33:18;94908.78;;;21.18;44.34
62697;BME280;48761;42.680;23.312;2023-05-20T11:35:49;94906.63;;;21.54;44.02
62697;BME280;48761;42.680;23.312;2023-05-20T11:38:15;94904.94;;;21.44;44.35
62697;BME280;48761;42.680;23.312;2023-05-20T11:40:50;94906.56;;;20.97;44.51
62697;BME280;48761;42.680;23.312;2023-05-20T11:43:16;94895.13;;;20.78;45.05
62697;BME280;48761;42.680;23.312;2023-05-20T11:45:44;94871.78;;;20.93;45.13
62697;BME280;48761;42.680;23.312;2023-05-20T11:48:10;94903.13;;;21.36;45.31
62697;BME280;48761;42.680;23.312;2023-05-20T11:50:38;94892.75;;;21.57;45.42
62697;BME280;48761;42.680;23.312;2023-05-20T11:53:06;94898.97;;;21.17;45.22
62697;BME280;48761;42.680;23.312;2023-05-20T11:55:33;94901.84;;;21.15;44.99
62697;BME280;48761;42.680;23.312;2023-05-20T11:58:00;94882.09;;;21.07;45.07
62697;BME280;48761;42.680;23.312;2023-05-20T12:00:26;94889.00;;;21.26;45.50
62697;BME280;48761;42.680;23.312;2023-05-20T12:02:52;94874.06;;;21.38;44.67
62697;BME280;48761;42.680;23.312;2023-05-20T12:05:18;94855.50;;;21.35;44.22
62697;BME280;48761;42.680;23.312;2023-05-20T12:07:44;94878.25;;;21.49;44.60
62697;BME280;48761;42.680;23.312;2023-05-20T12:10:10;94871.00;;;21.42;45.05
62697;BME280;48761;42.680;23.312;2023-05-20T12:12:36;94868.88;;;21.28;44.57
62697;BME280;48761;42.680;23.312;2023-05-20T12:15:03;94863.88;;;21.49;45.01
62697;BME280;48761;42.680;23.312;2023-05-20T12:17:44;94864.69;;;21.58;45.37
62697;BME280;48761;42.680;23.312;2023-05-20T12:20:12;94872.16;;;20.90;46.32
62697;BME280;48761;42.680;23.312;2023-05-20T12:22:38;94881.28;;;20.81;47.13
62697;BME280;48761;42.680;23.312;2023-05-20T12:25:05;94881.78;;;20.76;47.63
62697;BME280;48761;42.680;23.312;2023-05-20T12:27:31;94894.66;;;20.57;47.29
62697;BME280;48761;42.680;23.312;2023-05-20T12:29:57;94896.81;;;20.29;47.71
62697;BME280;48761;42.680;23.312;2023-05-20T12:32:23;94917.69;;;20.10;48.22
62697;BME280;48761;42.680;23.312;2023-05-20T12:34:48;94926.84;;;20.25;48.18
62697;BME280;48761;42.680;23.312;2023-05-20T12:37:14;94917.41;;;20.21;46.79
62697;BME280;48761;42.680;23.312;2023-05-20T12:39:40;94937.59;;;20.09;47.02
62697;BME280;48761;42.680;23.312;2023-05-20T12:42:06;94931.34;;;19.56;49.31
62697;BME280;48761;42.680;23.312;2023-05-20T12:44:32;94929.19;;;19.25;48.09
62697;BME280;48761;42.680;23.312;2023-05-20T12:46:58;94942.34;;;19.36;48.20
62697;BME280;48761;42.680;23.312;2023-05-20T12:49:24;94929.38;;;19.05;47.31
62697;BME280;48761;42.680;23.312;2023-05-20T12:51:50;94950.72;;;19.25;48.05
62697;BME280;48761;42.680;23.312;2023-05-20T12:54:16;94938.59;;;19.21;48.22
62697;BME280;48761;42.680;23.312;2023-05-20T12:56:42;94928.69;;;19.30;49.94
62697;BME280;48761;42.680;23.312;2023-05-20T12:59:08;94924.78;;;19.24;51.01
62697;BME280;48761;42.680;23.312;2023-05-20T13:01:34;94920.41;;;19.58;47.53
62697;BME280;48761;42.680;23.312;2023-05-20T13:04:00;94878.50;;;19.80;49.11
62697;BME280;48761;42.680;23.312;2023-05-20T13:06:26;94906.97;;;20.35;49.71
62697;BME280;48761;42.680;23.312;2023-05-20T13:08:52;94906.19;;;20.08;49.75
62697;BME280;48761;42.680;23.312;2023-05-20T13:11:18;94901.22;;;19.61;50.46
62697;BME280;48761;42.680;23.312;2023-05-20T13:13:44;94893.69;;;19.90;50.66
62697;BME280;48761;42.680;23.312;2023-05-20T13:16:10;94886.22;;;20.44;49.13
62697;BME280;48761;42.680;23.312;2023-05-20T13:18:36;94880.97;;;20.17;49.41
62697;BME280;48761;42.680;23.312;2023-05-20T13:21:02;94884.19;;;20.29;49.38
62697;BME280;48761;42.680;23.312;2023-05-20T13:23:28;94887.41;;;20.49;49.35
62697;BME280;48761;42.680;23.312;2023-05-20T13:25:54;94869.84;;;20.54;48.54
62697;BME280;48761;42.680;23.312;2023-05-20T13:28:20;94877.56;;;20.07;48.82
62697;BME280;48761;42.680;23.312;2023-05-20T13:30:46;94863.56;;;19.94;48.76
62697;BME280;48761;42.680;23.312;2023-05-20T13:33:12;94874.81;;;19.90;48.84
62697;BME280;48761;42.680;23.312;2023-05-20T13:35:37;94872.94;;;19.74;48.70
62697;BME280;48761;42.680;23.312;2023-05-20T13:38:05;94865.63;;;19.49;51.30
62697;BME280;48761;42.680;23.312;2023-05-20T13:40:30;94890.31;;;19.79;50.99
62697;BME280;48761;42.680;23.312;2023-05-20T13:42:56;94884.59;;;19.91;51.17
62697;BME280;48761;42.680;23.312;2023-05-20T13:45:22;94880.84;;;19.75;51.21
62697;BME280;48761;42.680;23.312;2023-05-20T13:47:48;94884.22;;;19.77;50.96
62697;BME280;48761;42.680;23.312;2023-05-20T13:50:14;94877.09;;;19.59;51.92
62697;BME280;48761;42.680;23.312;2023-05-20T13:52:40;94877.13;;;19.68;51.08